sensor_id;sensor_type;location;lat;lon;timestamp;P1;durP1;ratioP1;P2;durP2;ratioP2
32455;SDS011;18912;43.270;27.942;2023-02-03T00:01:12;8.33;;;3.47;;
32455;SDS011;18912;43.270;27.942;2023-02-03T00:03:38;7.43;;;3.53;;
32455;SDS011;18912;43.270;27.942;2023-02-03T00:06:03;8.93;;;3.87;;
32455;SDS011;18912;43.270;27.942;2023-02-03T00:08:29;8.52;;;3.33;;
32455;SDS011;18912;43.270;27.942;2023-02-03T00:13:21;11.38;;;3.72;;
32455;SDS011;18912;43.270;27.942;2023-02-03T00:15:46;8.20;;;3.38;;
32455;SDS011;18912;43.270;27.942;2023-02-03T00:18:12;10.77;;;3.30;;
32455;SDS011;18912;43.270;27.942;2023-02-03T00:20:37;10.17;;;3.57;;
32455;SDS011;18912;43.270;27.942;2023-02-03T00:23:06;10.13;;;2.80;;
32455;SDS011;18912;43.270;27.942;2023-02-03T00:25:33;8.07;;;3.70;;
32455;SDS011;18912;43.270;27.942;2023-02-03T00:27:59;9.80;;;3.30;;
32455;SDS011;18912;43.270;27.942;2023-02-03T00:30:25;12.18;;;3.30;;
32455;SDS011;18912;43.270;27.942;2023-02-03T00:35:17;11.32;;;3.40;;
32455;SDS011;18912;43.270;27.942;2023-02-03T00:37:42;8.73;;;3.50;;
32455;SDS011;18912;43.270;27.942;2023-02-03T00:40:08;12.20;;;3.40;;
32455;SDS011;18912;43.270;27.942;2023-02-03T00:42:34;7.63;;;3.25;;
32455;SDS011;18912;43.270;27.942;2023-02-03T00:45:00;10.32;;;3.90;;
32455;SDS011;18912;43.270;27.942;2023-02-03T00:47:25;8.35;;;3.78;;
32455;SDS011;18912;43.270;27.942;2023-02-03T00:49:51;8.13;;;3.73;;
32455;SDS011;18912;43.270;27.942;2023-02-03T00:52:16;8.30;;;3.30;;
32455;SDS011;18912;43.270;27.942;2023-02-03T00:54:42;8.23;;;3.53;;
32455;SDS011;18912;43.270;27.942;2023-02-03T00:57:07;10.30;;;4.20;;
32455;SDS011;18912;43.270;27.942;2023-02-03T00:59:33;8.70;;;4.23;;
32455;SDS011;18912;43.270;27.942;2023-02-03T01:01:58;17.27;;;5.03;;
32455;SDS011;18912;43.270;27.942;2023-02-03T01:04:24;14.37;;;4.87;;
32455;SDS011;18912;43.270;27.942;2023-02-03T01:06:50;8.32;;;4.20;;
32455;SDS011;18912;43.270;27.942;2023-02-03T01:09:15;14.68;;;4.28;;
32455;SDS011;18912;43.270;27.942;2023-02-03T01:11:41;16.50;;;5.10;;
32455;SDS011;18912;43.270;27.942;2023-02-03T01:14:06;9.83;;;4.10;;
32455;SDS011;18912;43.270;27.942;2023-02-03T01:16:32;12.50;;;3.70;;
32455;SDS011;18912;43.270;27.942;2023-02-03T01:19:00;10.52;;;3.60;;
32455;SDS011;18912;43.270;27.942;2023-02-03T01:21:26;8.88;;;3.67;;
32455;SDS011;18912;43.270;27.942;2023-02-03T01:23:51;7.13;;;3.87;;
32455;SDS011;18912;43.270;27.942;2023-02-03T01:28:49;10.07;;;3.63;;
32455;SDS011;18912;43.270;27.942;2023-02-03T01:31:17;9.60;;;3.80;;
32455;SDS011;18912;43.270;27.942;2023-02-03T01:33:44;9.68;;;3.67;;
32455;SDS011;18912;43.270;27.942;2023-02-03T01:36:12;7.57;;;3.90;;
32455;SDS011;18912;43.270;27.942;2023-02-03T01:38:39;7.90;;;3.15;;
32455;SDS011;18912;43.270;27.942;2023-02-03T01:41:06;10.23;;;3.83;;
32455;SDS011;18912;43.270;27.942;2023-02-03T01:43:37;13.50;;;3.97;;
32455;SDS011;18912;43.270;27.942;2023-02-03T01:48:49;8.00;;;3.80;;
32455;SDS011;18912;43.270;27.942;2023-02-03T01:51:16;11.52;;;4.43;;
32455;SDS011;18912;43.270;27.942;2023-02-03T01:53:41;10.80;;;4.40;;
32455;SDS011;18912;43.270;27.942;2023-02-03T01:56:08;15.02;;;4.70;;
32455;SDS011;18912;43.270;27.942;2023-02-03T01:58:35;7.72;;;4.07;;
32455;SDS011;18912;43.270;27.942;2023-02-03T02:01:03;6.60;;;3.35;;
32455;SDS011;18912;43.270;27.942;2023-02-03T02:03:36;8.95;;;3.92;;
32455;SDS011;18912;43.270;27.942;2023-02-03T02:06:06;8.52;;;3.65;;
32455;SDS011;18912;43.270;27.942;2023-02-03T02:08:33;10.52;;;3.88;;
32455;SDS011;18912;43.270;27.942;2023-02-03T02:11:00;7.32;;;3.95;;
32455;SDS011;18912;43.270;27.942;2023-02-03T02:13:30;6.95;;;3.42;;
32455;SDS011;18912;43.270;27.942;2023-02-03T02:44:00;10.10;;;3.70;;
32455;SDS011;18912;43.270;27.942;2023-02-03T02:46:40;8.30;;;3.83;;
32455;SDS011;18912;43.270;27.942;2023-02-03T02:52:04;11.95;;;3.80;;
32455;SDS011;18912;43.270;27.942;2023-02-03T02:54:32;12.30;;;3.65;;
32455;SDS011;18912;43.270;27.942;2023-02-03T02:57:02;14.07;;;4.20;;
32455;SDS011;18912;43.270;27.942;2023-02-03T02:59:30;9.38;;;4.22;;
32455;SDS011;18912;43.270;27.942;2023-02-03T03:01:56;21.00;;;6.78;;
32455;SDS011;18912;43.270;27.942;2023-02-03T03:04:22;15.00;;;4.43;;
32455;SDS011;18912;43.270;27.942;2023-02-03T03:06:52;12.13;;;4.72;;
32455;SDS011;18912;43.270;27.942;2023-02-03T03:09:39;11.75;;;4.15;;
32455;SDS011;18912;43.270;27.942;2023-02-03T03:12:13;10.15;;;4.05;;
32455;SDS011;18912;43.270;27.942;2023-02-03T03:14:44;8.85;;;4.15;;
32455;SDS011;18912;43.270;27.942;2023-02-03T03:17:15;8.90;;;4.10;;
32455;SDS011;18912;43.270;27.942;2023-02-03T03:19:47;8.85;;;3.40;;
32455;SDS011;18912;43.270;27.942;2023-02-03T03:22:18;8.80;;;3.03;;
32455;SDS011;18912;43.270;27.942;2023-02-03T03:24:47;10.52;;;3.20;;
32455;SDS011;18912;43.270;27.942;2023-02-03T03:27:22;6.30;;;3.60;;
32455;SDS011;18912;43.270;27.942;2023-02-03T03:32:26;9.30;;;3.97;;
32455;SDS011;18912;43.270;27.942;2023-02-03T03:34:54;12.23;;;4.10;;
32455;SDS011;18912;43.270;27.942;2023-02-03T03:42:38;8.57;;;4.30;;
32455;SDS011;18912;43.270;27.942;2023-02-03T03:47:42;12.02;;;4.25;;
32455;SDS011;18912;43.270;27.942;2023-02-03T03:50:14;54.50;;;18.50;;
32455;SDS011;18912;43.270;27.942;2023-02-03T03:52:43;18.00;;;6.70;;
32455;SDS011;18912;43.270;27.942;2023-02-03T03:55:11;10.60;;;4.82;;
32455;SDS011;18912;43.270;27.942;2023-02-03T03:57:40;18.63;;;6.88;;
32455;SDS011;18912;43.270;27.942;2023-02-03T04:00:11;23.95;;;8.85;;
32455;SDS011;18912;43.270;27.942;2023-02-03T04:02:41;19.77;;;7.85;;
32455;SDS011;18912;43.270;27.942;2023-02-03T04:05:15;16.80;;;7.13;;
32455;SDS011;18912;43.270;27.942;2023-02-03T04:07:42;12.73;;;5.32;;
32455;SDS011;18912;43.270;27.942;2023-02-03T04:10:21;16.25;;;6.43;;
32455;SDS011;18912;43.270;27.942;2023-02-03T04:12:54;15.20;;;5.78;;
32455;SDS011;18912;43.270;27.942;2023-02-03T04:15:20;11.37;;;5.60;;
32455;SDS011;18912;43.270;27.942;2023-02-03T04:17:46;18.95;;;5.90;;
32455;SDS011;18912;43.270;27.942;2023-02-03T04:20:11;15.57;;;4.73;;
32455;SDS011;18912;43.270;27.942;2023-02-03T04:22:38;17.25;;;5.95;;
32455;SDS011;18912;43.270;27.942;2023-02-03T04:25:03;12.17;;;4.83;;
32455;SDS011;18912;43.270;27.942;2023-02-03T04:27:29;19.13;;;5.03;;
32455;SDS011;18912;43.270;27.942;2023-02-03T04:29:54;10.37;;;5.60;;
32455;SDS011;18912;43.270;27.942;2023-02-03T04:32:20;19.47;;;7.47;;
32455;SDS011;18912;43.270;27.942;2023-02-03T04:34:45;23.63;;;9.30;;
32455;SDS011;18912;43.270;27.942;2023-02-03T04:37:11;17.13;;;7.33;;
32455;SDS011;18912;43.270;27.942;2023-02-03T04:39:36;16.97;;;8.23;;
32455;SDS011;18912;43.270;27.942;2023-02-03T04:42:02;17.47;;;6.20;;
32455;SDS011;18912;43.270;27.942;2023-02-03T04:44:27;12.50;;;4.68;;
32455;SDS011;18912;43.270;27.942;2023-02-03T04:46:53;13.10;;;4.77;;
32455;SDS011;18912;43.270;27.942;2023-02-03T04:49:18;15.13;;;5.23;;
32455;SDS011;18912;43.270;27.942;2023-02-03T04:51:44;14.27;;;6.27;;
32455;SDS011;18912;43.270;27.942;2023-02-03T04:54:09;34.90;;;11.07;;
32455;SDS011;18912;43.270;27.942;2023-02-03T04:56:36;23.90;;;9.18;;
32455;SDS011;18912;43.270;27.942;2023-02-03T04:59:02;17.77;;;7.93;;
32455;SDS011;18912;43.270;27.942;2023-02-03T05:01:27;17.07;;;7.03;;
32455;SDS011;18912;43.270;27.942;2023-02-03T05:03:53;22.92;;;8.68;;
32455;SDS011;18912;43.270;27.942;2023-02-03T05:06:22;20.83;;;8.00;;
32455;SDS011;18912;43.270;27.942;2023-02-03T05:08:50;11.80;;;7.25;;
32455;SDS011;18912;43.270;27.942;2023-02-03T05:13:41;17.63;;;8.50;;
32455;SDS011;18912;43.270;27.942;2023-02-03T05:16:07;19.20;;;8.70;;
32455;SDS011;18912;43.270;27.942;2023-02-03T05:18:32;16.60;;;8.57;;
32455;SDS011;18912;43.270;27.942;2023-02-03T05:20:57;21.10;;;9.13;;
32455;SDS011;18912;43.270;27.942;2023-02-03T05:23:23;16.17;;;7.97;;
32455;SDS011;18912;43.270;27.942;2023-02-03T05:25:48;13.73;;;5.30;;
32455;SDS011;18912;43.270;27.942;2023-02-03T05:28:14;12.67;;;5.23;;
32455;SDS011;18912;43.270;27.942;2023-02-03T05:30:40;16.63;;;5.37;;
32455;SDS011;18912;43.270;27.942;2023-02-03T05:33:05;11.07;;;4.72;;
32455;SDS011;18912;43.270;27.942;2023-02-03T05:35:31;9.70;;;3.85;;
32455;SDS011;18912;43.270;27.942;2023-02-03T05:37:56;14.35;;;4.07;;
32455;SDS011;18912;43.270;27.942;2023-02-03T05:40:23;6.25;;;3.60;;
32455;SDS011;18912;43.270;27.942;2023-02-03T05:43:18;11.73;;;4.18;;
32455;SDS011;18912;43.270;27.942;2023-02-03T05:45:43;6.67;;;3.53;;
32455;SDS011;18912;43.270;27.942;2023-02-03T05:48:09;8.83;;;4.13;;
32455;SDS011;18912;43.270;27.942;2023-02-03T05:50:35;11.30;;;3.75;;
32455;SDS011;18912;43.270;27.942;2023-02-03T05:53:02;10.45;;;4.05;;
32455;SDS011;18912;43.270;27.942;2023-02-03T05:55:29;16.65;;;5.53;;
32455;SDS011;18912;43.270;27.942;2023-02-03T06:00:21;11.15;;;5.30;;
32455;SDS011;18912;43.270;27.942;2023-02-03T06:02:51;9.23;;;3.28;;
32455;SDS011;18912;43.270;27.942;2023-02-03T06:05:17;7.57;;;3.30;;
32455;SDS011;18912;43.270;27.942;2023-02-03T06:10:09;7.43;;;3.17;;
32455;SDS011;18912;43.270;27.942;2023-02-03T06:12:36;6.40;;;3.10;;
32455;SDS011;18912;43.270;27.942;2023-02-03T06:15:02;15.00;;;3.47;;
32455;SDS011;18912;43.270;27.942;2023-02-03T06:17:27;13.27;;;3.47;;
32455;SDS011;18912;43.270;27.942;2023-02-03T06:19:53;7.13;;;3.13;;
32455;SDS011;18912;43.270;27.942;2023-02-03T06:22:18;8.60;;;2.80;;
32455;SDS011;18912;43.270;27.942;2023-02-03T06:24:44;7.23;;;2.47;;
32455;SDS011;18912;43.270;27.942;2023-02-03T06:27:10;7.07;;;2.72;;
32455;SDS011;18912;43.270;27.942;2023-02-03T06:29:36;8.23;;;2.83;;
32455;SDS011;18912;43.270;27.942;2023-02-03T06:32:03;5.03;;;2.67;;
32455;SDS011;18912;43.270;27.942;2023-02-03T06:34:28;7.05;;;2.58;;
32455;SDS011;18912;43.270;27.942;2023-02-03T06:36:54;4.10;;;2.20;;
32455;SDS011;18912;43.270;27.942;2023-02-03T06:39:19;6.97;;;2.80;;
32455;SDS011;18912;43.270;27.942;2023-02-03T06:41:45;7.07;;;2.50;;
32455;SDS011;18912;43.270;27.942;2023-02-03T06:44:10;7.87;;;3.90;;
32455;SDS011;18912;43.270;27.942;2023-02-03T06:46:36;6.83;;;3.03;;
32455;SDS011;18912;43.270;27.942;2023-02-03T06:49:03;4.50;;;2.63;;
32455;SDS011;18912;43.270;27.942;2023-02-03T06:51:28;10.20;;;3.95;;
32455;SDS011;18912;43.270;27.942;2023-02-03T06:53:53;11.67;;;4.47;;
32455;SDS011;18912;43.270;27.942;2023-02-03T06:56:19;16.90;;;4.07;;
32455;SDS011;18912;43.270;27.942;2023-02-03T06:58:44;13.00;;;6.13;;
32455;SDS011;18912;43.270;27.942;2023-02-03T07:01:10;9.23;;;4.70;;
32455;SDS011;18912;43.270;27.942;2023-02-03T07:03:35;6.63;;;4.43;;
32455;SDS011;18912;43.270;27.942;2023-02-03T07:06:01;9.53;;;4.30;;
32455;SDS011;18912;43.270;27.942;2023-02-03T07:08:26;5.87;;;2.80;;
32455;SDS011;18912;43.270;27.942;2023-02-03T07:10:52;10.73;;;3.60;;
32455;SDS011;18912;43.270;27.942;2023-02-03T07:15:44;6.72;;;3.47;;
32455;SDS011;18912;43.270;27.942;2023-02-03T07:18:09;23.70;;;10.43;;
32455;SDS011;18912;43.270;27.942;2023-02-03T07:20:34;8.43;;;6.03;;
32455;SDS011;18912;43.270;27.942;2023-02-03T07:23:00;8.20;;;2.70;;
32455;SDS011;18912;43.270;27.942;2023-02-03T07:25:25;7.33;;;3.40;;
32455;SDS011;18912;43.270;27.942;2023-02-03T07:27:51;7.13;;;3.30;;
32455;SDS011;18912;43.270;27.942;2023-02-03T07:30:17;5.35;;;2.70;;
32455;SDS011;18912;43.270;27.942;2023-02-03T07:32:49;8.23;;;2.80;;
32455;SDS011;18912;43.270;27.942;2023-02-03T07:35:15;8.52;;;4.10;;
32455;SDS011;18912;43.270;27.942;2023-02-03T07:37:41;10.60;;;5.37;;
32455;SDS011;18912;43.270;27.942;2023-02-03T07:40:08;8.10;;;4.10;;
32455;SDS011;18912;43.270;27.942;2023-02-03T07:42:34;12.85;;;5.43;;
32455;SDS011;18912;43.270;27.942;2023-02-03T07:45:00;4.27;;;2.20;;
32455;SDS011;18912;43.270;27.942;2023-02-03T07:47:25;10.20;;;5.37;;
32455;SDS011;18912;43.270;27.942;2023-02-03T07:49:51;6.60;;;3.43;;
32455;SDS011;18912;43.270;27.942;2023-02-03T07:52:16;7.53;;;3.37;;
32455;SDS011;18912;43.270;27.942;2023-02-03T07:54:42;5.93;;;2.47;;
32455;SDS011;18912;43.270;27.942;2023-02-03T07:57:07;6.20;;;3.37;;
32455;SDS011;18912;43.270;27.942;2023-02-03T07:59:32;4.43;;;2.13;;
32455;SDS011;18912;43.270;27.942;2023-02-03T08:01:58;8.10;;;2.40;;
32455;SDS011;18912;43.270;27.942;2023-02-03T08:04:23;6.13;;;2.43;;
32455;SDS011;18912;43.270;27.942;2023-02-03T09:28:03;7.68;;;3.47;;
32455;SDS011;18912;43.270;27.942;2023-02-03T09:30:29;9.23;;;4.40;;
32455;SDS011;18912;43.270;27.942;2023-02-03T09:32:54;5.63;;;2.47;;
32455;SDS011;18912;43.270;27.942;2023-02-03T09:35:21;7.07;;;2.72;;
32455;SDS011;18912;43.270;27.942;2023-02-03T09:37:46;5.65;;;2.33;;
32455;SDS011;18912;43.270;27.942;2023-02-03T09:40:17;8.90;;;4.63;;
32455;SDS011;18912;43.270;27.942;2023-02-03T09:43:06;10.35;;;4.35;;
32455;SDS011;18912;43.270;27.942;2023-02-03T09:45:40;8.70;;;4.07;;
32455;SDS011;18912;43.270;27.942;2023-02-03T09:48:10;12.10;;;3.33;;
32455;SDS011;18912;43.270;27.942;2023-02-03T09:50:43;11.90;;;5.55;;
32455;SDS011;18912;43.270;27.942;2023-02-03T09:53:18;10.10;;;5.43;;
32455;SDS011;18912;43.270;27.942;2023-02-03T09:55:52;15.85;;;7.88;;
32455;SDS011;18912;43.270;27.942;2023-02-03T09:58:19;6.75;;;3.05;;
32455;SDS011;18912;43.270;27.942;2023-02-03T10:00:51;4.65;;;3.03;;
32455;SDS011;18912;43.270;27.942;2023-02-03T10:03:35;4.90;;;2.67;;
32455;SDS011;18912;43.270;27.942;2023-02-03T10:19:11;10.10;;;3.20;;
32455;SDS011;18912;43.270;27.942;2023-02-03T10:21:46;11.35;;;3.10;;
32455;SDS011;18912;43.270;27.942;2023-02-03T10:24:20;8.30;;;2.70;;
32455;SDS011;18912;43.270;27.942;2023-02-03T10:27:04;5.35;;;2.47;;
32455;SDS011;18912;43.270;27.942;2023-02-03T10:29:38;6.40;;;2.97;;
32455;SDS011;18912;43.270;27.942;2023-02-03T10:32:10;7.40;;;2.33;;
32455;SDS011;18912;43.270;27.942;2023-02-03T10:34:36;5.93;;;2.15;;
32455;SDS011;18912;43.270;27.942;2023-02-03T10:40:10;4.75;;;2.33;;
32455;SDS011;18912;43.270;27.942;2023-02-03T10:42:40;8.50;;;2.35;;
32455;SDS011;18912;43.270;27.942;2023-02-03T10:45:26;4.03;;;2.72;;
32455;SDS011;18912;43.270;27.942;2023-02-03T10:47:52;5.23;;;2.13;;
32455;SDS011;18912;43.270;27.942;2023-02-03T10:52:46;7.88;;;2.38;;
32455;SDS011;18912;43.270;27.942;2023-02-03T11:02:55;3.70;;;2.00;;
32455;SDS011;18912;43.270;27.942;2023-02-03T11:05:21;5.18;;;2.67;;
32455;SDS011;18912;43.270;27.942;2023-02-03T11:07:50;7.32;;;2.67;;
32455;SDS011;18912;43.270;27.942;2023-02-03T11:15:57;6.57;;;2.30;;
32455;SDS011;18912;43.270;27.942;2023-02-03T11:18:26;12.15;;;2.83;;
32455;SDS011;18912;43.270;27.942;2023-02-03T11:20:57;6.53;;;3.15;;
32455;SDS011;18912;43.270;27.942;2023-02-03T11:23:23;11.70;;;5.35;;
32455;SDS011;18912;43.270;27.942;2023-02-03T11:25:49;9.93;;;3.90;;
32455;SDS011;18912;43.270;27.942;2023-02-03T11:28:15;7.47;;;3.30;;
32455;SDS011;18912;43.270;27.942;2023-02-03T11:30:41;5.85;;;2.63;;
32455;SDS011;18912;43.270;27.942;2023-02-03T11:33:40;7.10;;;2.73;;
32455;SDS011;18912;43.270;27.942;2023-02-03T11:35:58;6.60;;;2.25;;
32455;SDS011;18912;43.270;27.942;2023-02-03T11:38:30;6.30;;;2.78;;
32455;SDS011;18912;43.270;27.942;2023-02-03T11:40:57;5.30;;;2.70;;
32455;SDS011;18912;43.270;27.942;2023-02-03T11:43:25;4.50;;;2.38;;
32455;SDS011;18912;43.270;27.942;2023-02-03T11:45:53;14.98;;;3.25;;
32455;SDS011;18912;43.270;27.942;2023-02-03T11:48:30;3.42;;;1.90;;
32455;SDS011;18912;43.270;27.942;2023-02-03T13:18:49;5.30;;;2.78;;
32455;SDS011;18912;43.270;27.942;2023-02-03T13:21:20;9.65;;;3.80;;
32455;SDS011;18912;43.270;27.942;2023-02-03T13:23:47;13.07;;;5.65;;
32455;SDS011;18912;43.270;27.942;2023-02-03T13:34:10;9.13;;;4.25;;
32455;SDS011;18912;43.270;27.942;2023-02-03T13:43:01;8.98;;;3.47;;
32455;SDS011;18912;43.270;27.942;2023-02-03T13:45:30;5.35;;;2.30;;
32455;SDS011;18912;43.270;27.942;2023-02-03T13:48:15;4.20;;;2.25;;
32455;SDS011;18912;43.270;27.942;2023-02-03T13:50:48;7.63;;;3.22;;
32455;SDS011;18912;43.270;27.942;2023-02-03T13:55:52;9.57;;;3.00;;
32455;SDS011;18912;43.270;27.942;2023-02-03T13:58:30;5.93;;;3.03;;
32455;SDS011;18912;43.270;27.942;2023-02-03T14:00:59;6.15;;;3.10;;
32455;SDS011;18912;43.270;27.942;2023-02-03T14:05:56;8.37;;;2.57;;
32455;SDS011;18912;43.270;27.942;2023-02-03T14:14:00;10.20;;;2.35;;
32455;SDS011;18912;43.270;27.942;2023-02-03T14:16:46;8.90;;;2.80;;
32455;SDS011;18912;43.270;27.942;2023-02-03T14:24:28;7.88;;;3.53;;
32455;SDS011;18912;43.270;27.942;2023-02-03T14:26:57;5.47;;;2.83;;
32455;SDS011;18912;43.270;27.942;2023-02-03T14:34:30;6.88;;;2.45;;
32455;SDS011;18912;43.270;27.942;2023-02-03T14:37:07;7.25;;;3.00;;
32455;SDS011;18912;43.270;27.942;2023-02-03T14:42:16;19.80;;;8.18;;
32455;SDS011;18912;43.270;27.942;2023-02-03T14:45:13;21.85;;;10.77;;
32455;SDS011;18912;43.270;27.942;2023-02-03T14:59:17;8.05;;;4.00;;
32455;SDS011;18912;43.270;27.942;2023-02-03T15:06:39;7.93;;;3.27;;
32455;SDS011;18912;43.270;27.942;2023-02-03T15:09:44;3.00;;;1.60;;
32455;SDS011;18912;43.270;27.942;2023-02-03T15:12:17;2.13;;;0.82;;
32455;SDS011;18912;43.270;27.942;2023-02-03T15:14:46;1.38;;;0.85;;
32455;SDS011;18912;43.270;27.942;2023-02-03T15:19:47;0.77;;;0.60;;
32455;SDS011;18912;43.270;27.942;2023-02-03T15:24:52;9.18;;;3.00;;
32455;SDS011;18912;43.270;27.942;2023-02-03T15:27:28;13.98;;;7.47;;
32455;SDS011;18912;43.270;27.942;2023-02-03T15:29:56;29.30;;;13.45;;
32455;SDS011;18912;43.270;27.942;2023-02-03T15:34:54;13.60;;;8.02;;
32455;SDS011;18912;43.270;27.942;2023-02-03T15:37:30;8.30;;;4.53;;
32455;SDS011;18912;43.270;27.942;2023-02-03T15:40:17;104.72;;;42.05;;
32455;SDS011;18912;43.270;27.942;2023-02-03T15:42:54;28.13;;;14.70;;
32455;SDS011;18912;43.270;27.942;2023-02-03T15:45:31;4.57;;;2.33;;
32455;SDS011;18912;43.270;27.942;2023-02-03T15:48:21;2.63;;;1.85;;
32455;SDS011;18912;43.270;27.942;2023-02-03T15:51:11;6.55;;;2.58;;
32455;SDS011;18912;43.270;27.942;2023-02-03T15:54:00;2.08;;;1.48;;
32455;SDS011;18912;43.270;27.942;2023-02-03T15:58:52;13.17;;;5.30;;
32455;SDS011;18912;43.270;27.942;2023-02-03T16:01:19;20.20;;;10.73;;
32455;SDS011;18912;43.270;27.942;2023-02-03T16:03:49;14.30;;;7.78;;
32455;SDS011;18912;43.270;27.942;2023-02-03T16:08:54;35.55;;;20.63;;
32455;SDS011;18912;43.270;27.942;2023-02-03T16:11:30;32.35;;;18.60;;
32455;SDS011;18912;43.270;27.942;2023-02-03T16:13:58;42.85;;;22.17;;
32455;SDS011;18912;43.270;27.942;2023-02-03T16:16:32;22.90;;;12.60;;
32455;SDS011;18912;43.270;27.942;2023-02-03T16:19:15;30.58;;;15.88;;
32455;SDS011;18912;43.270;27.942;2023-02-03T16:27:18;26.38;;;14.60;;
32455;SDS011;18912;43.270;27.942;2023-02-03T16:29:50;30.95;;;14.48;;
32455;SDS011;18912;43.270;27.942;2023-02-03T16:36:02;11.95;;;6.00;;
32455;SDS011;18912;43.270;27.942;2023-02-03T16:38:53;10.68;;;5.07;;
32455;SDS011;18912;43.270;27.942;2023-02-03T16:41:37;11.68;;;5.55;;
32455;SDS011;18912;43.270;27.942;2023-02-03T16:44:21;17.30;;;4.70;;
32455;SDS011;18912;43.270;27.942;2023-02-03T16:47:20;13.95;;;5.45;;
32455;SDS011;18912;43.270;27.942;2023-02-03T16:50:07;7.78;;;3.78;;
32455;SDS011;18912;43.270;27.942;2023-02-03T16:52:55;8.60;;;3.95;;
32455;SDS011;18912;43.270;27.942;2023-02-03T16:55:20;6.20;;;3.33;;
32455;SDS011;18912;43.270;27.942;2023-02-03T16:57:46;7.23;;;3.90;;
32455;SDS011;18912;43.270;27.942;2023-02-03T17:00:11;9.60;;;4.20;;
32455;SDS011;18912;43.270;27.942;2023-02-03T17:02:37;6.95;;;4.30;;
32455;SDS011;18912;43.270;27.942;2023-02-03T17:05:03;10.63;;;4.07;;
32455;SDS011;18912;43.270;27.942;2023-02-03T17:07:29;6.57;;;3.90;;
32455;SDS011;18912;43.270;27.942;2023-02-03T17:09:54;11.60;;;6.27;;
32455;SDS011;18912;43.270;27.942;2023-02-03T17:12:19;26.53;;;12.10;;
32455;SDS011;18912;43.270;27.942;2023-02-03T17:14:45;62.50;;;24.33;;
32455;SDS011;18912;43.270;27.942;2023-02-03T17:17:10;33.60;;;13.13;;
32455;SDS011;18912;43.270;27.942;2023-02-03T17:19:36;80.33;;;30.43;;
32455;SDS011;18912;43.270;27.942;2023-02-03T17:22:01;77.40;;;30.07;;
32455;SDS011;18912;43.270;27.942;2023-02-03T17:24:27;78.50;;;29.40;;
32455;SDS011;18912;43.270;27.942;2023-02-03T17:26:52;46.97;;;19.23;;
32455;SDS011;18912;43.270;27.942;2023-02-03T17:29:18;29.35;;;16.33;;
32455;SDS011;18912;43.270;27.942;2023-02-03T17:31:44;17.57;;;7.73;;
32455;SDS011;18912;43.270;27.942;2023-02-03T17:34:10;16.15;;;5.72;;
32455;SDS011;18912;43.270;27.942;2023-02-03T17:36:36;10.20;;;5.35;;
32455;SDS011;18912;43.270;27.942;2023-02-03T17:39:01;12.47;;;5.50;;
32455;SDS011;18912;43.270;27.942;2023-02-03T17:41:27;11.30;;;4.57;;
32455;SDS011;18912;43.270;27.942;2023-02-03T17:43:53;28.90;;;14.27;;
32455;SDS011;18912;43.270;27.942;2023-02-03T17:46:22;25.67;;;11.27;;
32455;SDS011;18912;43.270;27.942;2023-02-03T17:48:49;22.98;;;11.45;;
32455;SDS011;18912;43.270;27.942;2023-02-03T17:51:16;24.27;;;11.73;;
32455;SDS011;18912;43.270;27.942;2023-02-03T17:53:44;22.40;;;10.90;;
32455;SDS011;18912;43.270;27.942;2023-02-03T17:56:15;21.10;;;10.02;;
32455;SDS011;18912;43.270;27.942;2023-02-03T17:58:41;18.40;;;9.68;;
32455;SDS011;18912;43.270;27.942;2023-02-03T18:01:10;19.40;;;10.38;;
32455;SDS011;18912;43.270;27.942;2023-02-03T18:03:46;17.05;;;8.50;;
32455;SDS011;18912;43.270;27.942;2023-02-03T18:06:14;18.13;;;6.38;;
32455;SDS011;18912;43.270;27.942;2023-02-03T18:08:41;12.88;;;6.85;;
32455;SDS011;18912;43.270;27.942;2023-02-03T18:11:07;12.85;;;7.38;;
32455;SDS011;18912;43.270;27.942;2023-02-03T18:13:35;9.57;;;5.60;;
32455;SDS011;18912;43.270;27.942;2023-02-03T18:16:02;13.93;;;6.88;;
32455;SDS011;18912;43.270;27.942;2023-02-03T18:18:29;10.15;;;6.18;;
32455;SDS011;18912;43.270;27.942;2023-02-03T18:20:55;12.23;;;5.43;;
32455;SDS011;18912;43.270;27.942;2023-02-03T18:23:20;11.93;;;5.73;;
32455;SDS011;18912;43.270;27.942;2023-02-03T18:25:52;12.63;;;6.23;;
32455;SDS011;18912;43.270;27.942;2023-02-03T18:28:18;14.77;;;6.43;;
32455;SDS011;18912;43.270;27.942;2023-02-03T18:30:44;10.33;;;5.00;;
32455;SDS011;18912;43.270;27.942;2023-02-03T18:33:09;11.20;;;5.97;;
32455;SDS011;18912;43.270;27.942;2023-02-03T18:35:35;12.23;;;6.70;;
32455;SDS011;18912;43.270;27.942;2023-02-03T18:38:01;11.57;;;5.80;;
32455;SDS011;18912;43.270;27.942;2023-02-03T18:40:26;9.57;;;5.60;;
32455;SDS011;18912;43.270;27.942;2023-02-03T18:42:51;11.73;;;4.87;;
32455;SDS011;18912;43.270;27.942;2023-02-03T18:45:20;15.15;;;7.10;;
32455;SDS011;18912;43.270;27.942;2023-02-03T18:47:46;15.93;;;7.25;;
32455;SDS011;18912;43.270;27.942;2023-02-03T18:50:11;52.43;;;22.47;;
32455;SDS011;18912;43.270;27.942;2023-02-03T18:52:37;28.97;;;12.27;;
32455;SDS011;18912;43.270;27.942;2023-02-03T18:55:02;15.47;;;7.20;;
32455;SDS011;18912;43.270;27.942;2023-02-03T18:57:28;11.20;;;6.00;;
32455;SDS011;18912;43.270;27.942;2023-02-03T18:59:54;42.97;;;19.00;;
32455;SDS011;18912;43.270;27.942;2023-02-03T19:02:19;20.65;;;10.85;;
32455;SDS011;18912;43.270;27.942;2023-02-03T19:04:47;20.17;;;10.85;;
32455;SDS011;18912;43.270;27.942;2023-02-03T19:07:12;15.97;;;7.37;;
32455;SDS011;18912;43.270;27.942;2023-02-03T19:09:38;26.13;;;15.03;;
32455;SDS011;18912;43.270;27.942;2023-02-03T19:12:04;19.15;;;9.80;;
32455;SDS011;18912;43.270;27.942;2023-02-03T19:14:30;11.18;;;6.25;;
32455;SDS011;18912;43.270;27.942;2023-02-03T19:16:56;12.98;;;7.60;;
32455;SDS011;18912;43.270;27.942;2023-02-03T19:19:23;15.90;;;7.03;;
32455;SDS011;18912;43.270;27.942;2023-02-03T19:21:48;15.07;;;7.67;;
32455;SDS011;18912;43.270;27.942;2023-02-03T19:24:15;23.80;;;10.35;;
32455;SDS011;18912;43.270;27.942;2023-02-03T19:26:41;23.10;;;11.17;;
32455;SDS011;18912;43.270;27.942;2023-02-03T19:29:07;14.43;;;7.07;;
32455;SDS011;18912;43.270;27.942;2023-02-03T19:31:32;14.30;;;6.82;;
32455;SDS011;18912;43.270;27.942;2023-02-03T19:33:59;12.00;;;6.47;;
32455;SDS011;18912;43.270;27.942;2023-02-03T19:36:26;17.90;;;7.43;;
32455;SDS011;18912;43.270;27.942;2023-02-03T19:41:17;16.13;;;7.28;;
32455;SDS011;18912;43.270;27.942;2023-02-03T19:43:43;25.67;;;11.03;;
32455;SDS011;18912;43.270;27.942;2023-02-03T19:46:08;30.30;;;12.90;;
32455;SDS011;18912;43.270;27.942;2023-02-03T19:48:36;25.95;;;11.38;;
32455;SDS011;18912;43.270;27.942;2023-02-03T19:51:05;28.10;;;12.73;;
32455;SDS011;18912;43.270;27.942;2023-02-03T19:53:31;19.20;;;8.70;;
32455;SDS011;18912;43.270;27.942;2023-02-03T19:55:57;33.38;;;10.23;;
32455;SDS011;18912;43.270;27.942;2023-02-03T19:58:23;15.55;;;7.45;;
32455;SDS011;18912;43.270;27.942;2023-02-03T20:00:49;15.88;;;8.23;;
32455;SDS011;18912;43.270;27.942;2023-02-03T20:03:15;15.20;;;7.10;;
32455;SDS011;18912;43.270;27.942;2023-02-03T20:05:44;14.80;;;8.70;;
32455;SDS011;18912;43.270;27.942;2023-02-03T20:08:10;16.23;;;7.60;;
32455;SDS011;18912;43.270;27.942;2023-02-03T20:10:38;22.88;;;9.85;;
32455;SDS011;18912;43.270;27.942;2023-02-03T20:13:04;21.70;;;10.45;;
32455;SDS011;18912;43.270;27.942;2023-02-03T20:15:30;22.00;;;10.93;;